Mateo Herrera

Olheiro-Chefe - San Lorenzo
3 Abr 2027
Sábado
Processo

Personalidade

Adaptabilidade (8) Ambição (18) Controvérsia (3) Lealdade (15) Pressão (12) Profissionalismo (5) Espírito Esportivo (1) Temperamento (10)

Perfil

Estilo de Treinamento Democrático
Licença Continental B
Determinação 11
Gestão de Pessoas 8
Motivação 13
Disciplina 5
Satisfação no Trabalho
76%
Fadiga
0%
Função Olheiro-Chefe
Salário 30.3K p/s
Contrato 14.03.2030

Desempenho

Comportamento Bom
Eficácia do Treinamento
42%
Desenvolvimento do Jogador
35%
Prevenção de Lesões
35%
Implementação Tática
50%

Eventos Recentes

Avaliou um jogador agora
Participou de uma reunião de recrutamento agora
Participou de uma reunião de recrutamento agora
Avaliou um jogador agora
Avaliou um jogador agora
Avaliou um jogador 7d atrás
Avaliou um jogador 7d atrás
Avaliou um jogador 7d atrás

Monitorando agora

278
Jogador Clube Status Habilidade Confiança Observado Última observação Último voto
Nilson Angulo Sunderland Ativo 129 / 124 40% 3 02.04.2027 -
Mateo Retegui Al-Qadisiyah Ativo 154 / 165 40% 10 02.04.2027 -
Gabriel Sara Galatasaray Ativo 145 / 150 40% 1 02.04.2027 -
Théo Hernández Al-Hilal Ativo 156 / 150 40% 1 02.04.2027 -
Domagoj Bradarić Hellas Verona Ativo 122 / 128 40% 1 02.04.2027 -
Fashion Sakala Al-Fayha Ativo 123 / 126 40% 9 31.03.2027 -
Giovanni Simeone Torino Ativo 140 / 141 40% 7 31.03.2027 -
Kaio Jorge Cruzeiro Ativo 142 / 145 40% 4 31.03.2027 -
Oliver Dovin Coventry City Ativo 126 / 124 40% 1 31.03.2027 -
Brenno Sport Recife Ativo 114 / 119 40% 1 31.03.2027 -
Ivor Pandur Hull City Ativo 128 / 130 40% 1 31.03.2027 -
Alan Velasco Boca Juniors Ativo 132 / 131 40% 13 29.03.2027 -
Milton Giménez Boca Juniors Ativo 129 / 123 40% 5 29.03.2027 -
Alexandr Sobolev Zenit Ativo 138 / 133 40% 1 29.03.2027 -
Musa Barrow Al-Khaleej Ativo 141 / 144 40% 9 28.03.2027 -
Youssef En-Nesyri Al-Ittihad Ativo 148 / 143 40% 1 28.03.2027 -
Brenner Vasco da Gama Ativo 129 / 125 40% 1 28.03.2027 -
Felipe Augusto Zenit Ativo 136 / 137 40% 6 27.03.2027 -
Julián Quiñones Al-Qadisiyah Ativo 149 / 151 40% 8 27.03.2027 -
Vanja Milinković-Savić Napoli Ativo 147 / 154 40% 1 27.03.2027 -
Sol Brynn Middlesbrough Ativo 116 / 129 40% 1 27.03.2027 -
Kiyani Zeggen AZ Ativo 127 / 135 40% 1 27.03.2027 -
Moussa Dembélé Al-Ettifaq Ativo 141 / 134 40% 3 25.03.2027 -
Uriel Antuna Dinamo Moscow Ativo 138 / 142 40% 2 25.03.2027 -
Luciano Gondou CSKA Moscow Ativo 137 / 126 40% 5 24.03.2027 -
Julio Alonso Huesca Ativo 114 / 129 40% 2 24.03.2027 -
Morgan Whittaker Middlesbrough Ativo 132 / 135 40% 3 24.03.2027 -
Óscar Al-Diriyah Ativo 127 / 126 40% 1 24.03.2027 -
Emile Smith Rowe Fulham Ativo 157 / 145 40% 2 23.03.2027 -
Yassine Benzia Al-Fayha Ativo 127 / 120 40% 1 23.03.2027 -
Steven Bergwijn Al-Ittihad Ativo 141 / 146 40% 3 22.03.2027 -
Raúl García Osasuna Ativo 141 / 136 40% 1 22.03.2027 -
Bruno Barticciotto Talleres Ativo 130 / 125 40% 3 21.03.2027 -
Luis Vázquez Birmingham Ativo 134 / 126 40% 3 21.03.2027 -
Chris Ramos Botafogo Ativo 135 / 125 40% 3 20.03.2027 -
Kingsley Coman Al-Nassr Ativo 161 / 153 40% 1 20.03.2027 -
Ivan Sergeev Dinamo Moscow Ativo 116 / 130 40% 3 18.03.2027 -
Chuba Akpom Ipswich Town Ativo 116 / 131 40% 2 18.03.2027 -
Aitor Ruibal Betis Ativo 137 / 138 40% 6 17.03.2027 -
Ali Youssef Apollon Ativo 127 / 115 40% 2 17.03.2027 -
Negueba Mirassol Ativo 129 / 129 40% 2 15.03.2027 -
Mirlind Daku Spartak Moscow Ativo 140 / 133 40% 6 14.03.2027 -
Alexey Batrakov Galatasaray Ativo 150 / 146 40% 3 13.03.2027 -
Dominik Takáč Slovan Bratislava Ativo 129 / 126 40% 3 12.03.2027 -
Maarten Paes Ajax Ativo 143 / 138 40% 2 12.03.2027 -
Antonino Gallo Lecce Ativo 140 / 136 40% 2 12.03.2027 -
Stefan Drljača VfB Stuttgart Ativo 122 / 114 40% 2 12.03.2027 -
Valentin Rosier Osasuna Ativo 124 / 135 40% 1 12.03.2027 -
Vitaly Janelt Brentford Ativo 134 / 141 40% 1 12.03.2027 -
Iqraam Rayners Mamelodi Sundowns Ativo 139 / 127 40% 5 08.03.2027 -
Tomás Molina Argentinos Juniors Ativo 127 / 128 40% 4 06.03.2027 -
Camilo Durán Bloemfontein Celtic Ativo 130 / 121 40% 6 05.03.2027 -
Theo Bongonda Al-Faisaly Ativo 136 / 127 40% 3 05.03.2027 -
Marcelo Allende Mamelodi Sundowns Ativo 120 / 126 40% 1 04.03.2027 -
Teboho Williams SuperSport United Ativo 117 / 116 40% 1 04.03.2027 -
Carlos Rotondi Cruz Azul Ativo 136 / 130 40% 1 04.03.2027 -
Ivan Toney Al-Ahli Ativo 161 / 149 40% 3 02.03.2027 -
Relebohile Mofokeng Orlando Pirates Ativo 121 / 115 40% 3 01.03.2027 -
Adam Bareiro Boca Juniors Ativo 118 / 131 40% 2 01.03.2027 -
Gift Zwane Platinum Stars Ativo 127 / 112 40% 1 01.03.2027 -
Ammar Ramadan DAC Dunajska Streda Ativo 116 / 123 40% 9 27.02.2027 -
Crysencio Summerville Al-Hilal Ativo 139 / 149 40% 1 27.02.2027 -
Jason Al-Fayha Ativo 123 / 117 40% 1 27.02.2027 -
Pablo Solari Spartak Moscow Ativo 123 / 134 40% 1 26.02.2027 -
Ander Barrenetxea Real Sociedad Ativo 145 / 157 40% 1 25.02.2027 -
Tijjani Reijnders Al-Qadisiyah Ativo 165 / 152 40% 1 25.02.2027 -
Sergey Pinyaev Lokomotiv Moscow Ativo 138 / 134 40% 3 24.02.2027 -
Mateusz Kochalski Qarabag Ativo 124 / 132 40% 1 23.02.2027 -
Santiago Solari Racing Club Ativo 120 / 125 40% 2 22.02.2027 -
Omari Hutchinson Nottingham Forest Ativo 146 / 136 40% 1 22.02.2027 -
Natan Betis Ativo 149 / 143 40% 1 19.02.2027 -
Ferland Mendy Real Madrid Ativo 145 / 143 40% 1 19.02.2027 -
Alexandr Chernikov Krasnodar Ativo 130 / 135 40% 1 19.02.2027 -
Younes Ebnoutalib Eintracht Frankfurt Ativo 142 / 132 40% 1 18.02.2027 -
Felipe Zenobio Tigre Ativo 130 / 126 40% 1 18.02.2027 -
Sambou Soumano FC Lorient Ativo 115 / 130 40% 2 15.02.2027 -
Yuma Suzuki Kashima Antlers Ativo 125 / 138 40% 6 14.02.2027 -
Yarden Shua Beitar Jerusalem Ativo 118 / 136 40% 2 13.02.2027 -
Jean-Luc Morin Tours Ativo 135 / 136 40% 1 10.02.2027 -
Álex Arce Independiente Rivadavia Ativo 120 / 124 40% 9 09.02.2027 -
Stav Toriel Hapoel Tel Aviv Ativo 124 / 124 40% 2 09.02.2027 -
Kobbie Mainoo Manchester United Ativo 162 / 160 40% 1 09.02.2027 -
Rafael Santos Borré River Plate Ativo 134 / 131 40% 6 07.02.2027 -
Andras Szalai Haladas Ativo 135 / 125 40% 6 07.02.2027 -
Emmanuel Boateng Hapoel Tel Aviv Ativo 123 / 129 40% 3 07.02.2027 -
Josh Brownhill Al-Shabab Ativo 131 / 132 40% 2 06.02.2027 -
Kwadwo Duah Ludogorets Ativo 136 / 125 40% 3 06.02.2027 -
Moisés CSKA Moscow Ativo 130 / 130 40% 1 06.02.2027 -
Adrian Šemper Al-Fateh Ativo 127 / 136 40% 2 04.02.2027 -
Lucas Acosta Aldosivi Ativo 126 / 128 40% 1 04.02.2027 -
Jonás Acevedo Instituto Ativo 131 / 127 40% 3 31.01.2027 -
Arthur Gomes Dinamo Moscow Ativo 114 / 131 40% 1 29.01.2027 -
Ignacio Ramírez Newell's Old Boys Ativo 116 / 125 40% 2 27.01.2027 -
Dor Turgeman New England Revolution Ativo 117 / 137 40% 3 27.01.2027 -
Miguel Merentiel Boca Juniors Ativo 129 / 124 40% 8 26.01.2027 -
Alejo Dramisino Honved Ativo 113 / 120 40% 3 24.01.2027 -
Parfait Guiagon Al-Taawoun Ativo 114 / 125 40% 1 24.01.2027 -
Mahamadou Doumbia Al-Ittihad Ativo 126 / 132 40% 1 24.01.2027 -
Ángel Correa River Plate Ativo 140 / 147 40% 8 22.01.2027 -
Marquinhos APOEL Ativo 133 / 127 40% 2 22.01.2027 -
Reda Khadra Qarabag Ativo 136 / 139 40% 2 22.01.2027 -
Kirill Glebov CSKA Moscow Ativo 122 / 131 40% 2 19.01.2027 -
Keagan Mothiba SuperSport United Ativo 122 / 109 40% 1 19.01.2027 -
Thierry Rendall Correia Venezia Ativo 150 / 143 40% 1 19.01.2027 -
Axel Openda KV Oostende Ativo 122 / 130 40% 2 18.01.2027 -
Hélio Varela Maccabi Tel Aviv Ativo 131 / 132 40% 1 18.01.2027 -
Stanley Mills Oxford United Ativo 119 / 114 40% 1 18.01.2027 -
Camilo Perez Cortulua Ativo 123 / 121 40% 1 18.01.2027 -
Zelimkhan Bakaev Lokomotiv Moscow Ativo 117 / 124 40% 1 18.01.2027 -
Brayan Gil Baltika Ativo 130 / 118 40% 4 14.01.2027 -
Oleksii Hutsuliak Polissia Ativo 120 / 121 40% 5 14.01.2027 -
Mehdi Ghayedi Al Nasr Ativo 123 / 124 40% 5 12.01.2027 -
Leandro Andrade Polissia Ativo 129 / 121 40% 2 12.01.2027 -
Ronaldo Rostov Ativo 136 / 123 40% 1 12.01.2027 -
Soufiane Rahimi Al Ain Ativo 136 / 138 40% 6 11.01.2027 -
Ola Brynhildsen Bodo/Glimt Ativo 131 / 130 40% 3 08.01.2027 -
Abdullah Juma Al Ahli Ativo 142 / 126 40% 4 08.01.2027 -
Haissem Hassan Bloemfontein Celtic Ativo 143 / 137 40% 1 07.01.2027 -
Domagoj Drožđek Tractor Ativo 134 / 134 40% 6 04.01.2027 -
Itumeleng Tau Ajax Cape Town Ativo 111 / 105 40% 3 03.01.2027 -
Daniel Karlsbakk Sarpsborg 08 Ativo 123 / 136 40% 4 01.01.2027 -
Yusuke Matsuo CSKA Moscow Ativo 118 / 118 40% 2 31.12.2026 -
Veljko Birmančević Ferencvaros Ativo 138 / 139 40% 10 30.12.2026 -
Khalid Yaqoob Al Shabab Ativo 127 / 130 40% 2 30.12.2026 -
Facundo Torres Shakhtar Ativo 143 / 132 40% 2 29.12.2026 -
Juan Bezerra Zamalek Ativo 123 / 128 40% 1 29.12.2026 -
Lucas Cepeda Elche Ativo 125 / 132 40% 1 29.12.2026 -
Jordan Larsson Al-Ettifaq Ativo 115 / 122 40% 1 29.12.2026 -
Oston O'runov Persepolis Ativo 134 / 123 40% 2 27.12.2026 -
Alfredo Garcia La Equidad Ativo 146 / 144 40% 1 27.12.2026 -
Amir Hossein Hosseinzadeh Tractor Ativo 123 / 124 40% 2 22.12.2026 -
Pedrinho Shakhtar Ativo 133 / 136 40% 1 20.12.2026 -
Ashkan Shojaei Siah Jamegan Ativo 125 / 128 40% 2 17.12.2026 -
Tomás O'Connor Gimnasia y Esgrima Ativo 121 / 131 40% 1 16.12.2026 -
Juan Manuel Boselli Krasnodar Ativo 131 / 118 40% 1 16.12.2026 -
Karim El Berkaoui Al Dhafra Ativo 131 / 112 40% 1 14.12.2026 -
Iván Martín Racing Club Ativo 142 / 141 40% 3 11.12.2026 -
Milson Al Jazira Ativo 135 / 130 40% 2 11.12.2026 -
Oswin Appollis Orlando Pirates Ativo 131 / 124 40% 1 10.12.2026 -
Akinkunmi Amoo Ismaily Ativo 117 / 112 40% 1 10.12.2026 -
Aarón Molinas Defensa y Justicia Ativo 126 / 124 40% 1 10.12.2026 -
Hamode Kanaan Hapoel Beer Sheva Ativo 116 / 123 40% 1 08.12.2026 -
Mohammad Mehdi Mohebi Persepolis Ativo 130 / 123 40% 1 06.12.2026 -
Kristian Eriksen Molde Ativo 121 / 133 40% 1 06.12.2026 -
Yorbe Vertessen Red Bull Salzburg Ativo 136 / 129 40% 1 02.12.2026 -
João Klauss LA Galaxy Ativo 131 / 118 40% 1 01.12.2026 -
Helinho Toluca Ativo 117 / 126 40% 1 30.11.2026 -
Yeray Athletic Bilbao Ativo 146 / 129 40% 3 29.11.2026 -
Julian Weigl Al-Qadisiyah Ativo 143 / 133 40% 2 29.11.2026 -
Teboho Mokoena Mamelodi Sundowns Ativo 137 / 132 40% 1 29.11.2026 -
Franco Ibarra Rosario Central Ativo 129 / 128 40% 2 27.11.2026 -
David Junuzovic Mattersburg Ativo 136 / 123 40% 2 27.11.2026 -
Aubrey Modiba Mamelodi Sundowns Ativo 116 / 121 40% 1 26.11.2026 -
Sebastián Villa Boca Juniors Ativo 121 / 133 40% 3 22.11.2026 -
Timo Werner San Jose Earthquakes Ativo 127 / 120 40% 4 22.11.2026 -
Adrián Marín Orlando City Ativo 138 / 119 40% 1 22.11.2026 -
Obed Vargas Atlético Madrid Ativo 125 / 127 40% 1 22.11.2026 -
Giorgos Giakoumakis Al Ain Ativo 129 / 134 40% 3 20.11.2026 -
Allahyar Sayyadmanesh Lech Ativo 117 / 122 40% 1 19.11.2026 -
Francisco Álvarez Argentinos Juniors Ativo 132 / 119 40% 3 18.11.2026 -
Everton Bala Levski Ativo 118 / 119 40% 2 16.11.2026 -
Lovre Rogić HNK Rijeka Ativo 129 / 120 40% 1 14.11.2026 -
Răzvan Sava Universitatea Craiova Ativo 134 / 120 40% 1 14.11.2026 -
Maílson Al-Taawoun Ativo 118 / 134 40% 1 13.11.2026 -
Iván Arboleda Sarmiento Ativo 125 / 118 40% 1 13.11.2026 -
Leandro Lozano Boca Juniors Ativo 126 / 126 40% 2 10.11.2026 -
Rodrigo Huescas FC Copenhagen Ativo 128 / 127 40% 1 10.11.2026 -
Lucas Souto Defensa y Justicia Ativo 121 / 123 40% 2 09.11.2026 -
Christopher Martins Pereira Spartak Moscow Ativo 117 / 128 40% 1 09.11.2026 -
Alan Lescano Argentinos Juniors Ativo 138 / 124 40% 1 09.11.2026 -
Sergej Milinković-Savić Al-Hilal Ativo 158 / 149 40% 2 06.11.2026 -
Obinna Nwobodo FC Cincinnati Ativo 122 / 133 40% 1 06.11.2026 -
Emanuel Mammana Vélez Ativo 127 / 130 40% 1 03.11.2026 -
Mutsuki Kato Sanfrecce Hiroshima Ativo 126 / 129 40% 1 02.11.2026 -
Leo Ceara Kashima Antlers Ativo 133 / 134 40% 5 31.10.2026 -
Josh Sargent Toronto FC Ativo 117 / 130 40% 3 31.10.2026 -
Ryo Germain Sanfrecce Hiroshima Ativo 121 / 118 40% 3 30.10.2026 -
Ali Soliman Masr El Makasa Ativo 132 / 122 40% 1 30.10.2026 -
Gastón Lodico Racing Club Ativo 126 / 121 40% 1 30.10.2026 -
Paul Izzo Randers Ativo 123 / 110 40% 1 30.10.2026 -
Zack Steffen Colorado Rapids Ativo 144 / 126 40% 1 30.10.2026 -
Matevž Vidovšek Olimpija Ljubljana Ativo 119 / 126 40% 1 30.10.2026 -
Erik Botheim Malmo FF Ativo 141 / 126 40% 3 27.10.2026 -
Rodrigo Herrera Newell's Old Boys Ativo 130 / 122 40% 1 27.10.2026 -
Luiz Felipe Rayo Vallecano Ativo 129 / 131 40% 1 27.10.2026 -
Felipe Peña Biafore Lanús Ativo 122 / 126 40% 3 26.10.2026 -
Matko Miljevic Racing Club Ativo 130 / 132 40% 1 26.10.2026 -
Karim Konaté Red Bull Salzburg Ativo 134 / 143 40% 5 23.10.2026 -
Takuma Asano Sanfrecce Hiroshima Ativo 148 / 132 40% 1 23.10.2026 -
Kévin Denkey FC Cincinnati Ativo 123 / 121 40% 2 22.10.2026 -
Juan Manuel Sanabria Real Salt Lake Ativo 138 / 118 40% 2 19.10.2026 -
Ignacio Vázquez Platense Ativo 134 / 132 40% 1 19.10.2026 -
Pep Biel Charlotte Football Club Ativo 128 / 122 40% 7 18.10.2026 -
Yuki Kakita FC Copenhagen Ativo 119 / 134 40% 1 16.10.2026 -
Diadié Samassékou Houston Dynamo Ativo 135 / 123 40% 1 16.10.2026 -
Nazareno Colombo Racing Club Ativo 120 / 130 40% 1 16.10.2026 -
Facundo Zabala Independiente Ativo 130 / 128 40% 1 16.10.2026 -
Santiago Longo Belgrano Ativo 117 / 119 40% 2 15.10.2026 -
Rob Holding Colorado Rapids Ativo 132 / 118 40% 1 15.10.2026 -
Guilherme Houston Dynamo Ativo 134 / 127 40% 1 14.10.2026 -
Victor Lind Hammarby Ativo 140 / 131 40% 1 14.10.2026 -
Kauã Elias Shakhtar Ativo 118 / 126 40% 1 12.10.2026 -
Santiago Cáseres Basel Ativo 128 / 128 40% 1 12.10.2026 -
Lucas Carrizo Newell's Old Boys Ativo 127 / 120 40% 1 12.10.2026 -
Joao Ortiz Portland Timbers Ativo 115 / 128 40% 1 11.10.2026 -
Afimico Pululu Al-Hazem Ativo 136 / 124 40% 1 09.10.2026 -
Luka Jović AEK Ativo 140 / 142 40% 1 09.10.2026 -
Erison Kawasaki Frontale Ativo 142 / 138 40% 1 07.10.2026 -
Gabriel Neves Estudiantes Ativo 118 / 119 40% 2 04.10.2026 -
Damián Fernández Defensa y Justicia Ativo 126 / 131 40% 1 04.10.2026 -
Jens Petter Hauge Bodo/Glimt Ativo 140 / 131 40% 1 04.10.2026 -
Jonathan Bamba Chicago Fire Ativo 145 / 137 40% 1 04.10.2026 -
Fiete Arp OB Ativo 117 / 135 40% 3 02.10.2026 -
Miles Robinson FC Cincinnati Ativo 131 / 128 40% 1 29.09.2026 -
Kimito Nono Gamba Osaka Ativo 118 / 122 40% 1 29.09.2026 -
Wessam Abou Ali Columbus Crew Ativo 143 / 136 40% 2 23.09.2026 -
Brian Rodríguez Club America Ativo 135 / 131 40% 1 23.09.2026 -
Fernando Beltrán Leon Ativo 137 / 127 40% 1 23.09.2026 -
Sebastián Córdova Pumas UNAM Ativo 136 / 132 40% 1 23.09.2026 -
Denis Bouanga Los Angeles Football Club Ativo 121 / 133 40% 3 22.09.2026 -
Maurits Kjærgaard Red Bull Salzburg Ativo 116 / 133 40% 1 22.09.2026 -
Jordan Morris Seattle Sounders Ativo 117 / 135 40% 1 21.09.2026 -
Carlos Gruezo Santos Laguna Ativo 118 / 127 40% 2 20.09.2026 -
Luca Orellano Monterrey Ativo 136 / 132 40% 3 20.09.2026 -
Jesús Ricardo Angulo Toluca Ativo 143 / 125 40% 1 20.09.2026 -
Eguinaldo Shakhtar Ativo 118 / 126 40% 1 19.09.2026 -
Kein Sato FC Tokyo Ativo 120 / 135 40% 2 15.09.2026 -
Luca Langoni New England Revolution Ativo 136 / 125 40% 2 15.09.2026 -
Cesar Corona Veracruz Ativo 130 / 136 40% 1 15.09.2026 -
Rubén Duarte Pumas UNAM Ativo 123 / 130 40% 1 14.09.2026 -
Kevin Álvarez Club America Ativo 136 / 128 40% 1 14.09.2026 -
Manuel Capasso Atlas Ativo 127 / 113 40% 1 14.09.2026 -
Christian Kouamé Aris Thessaloniki Ativo 120 / 127 40% 1 14.09.2026 -
Lukáš Provod Slavia Prague Ativo 134 / 153 40% 1 14.09.2026 -
Ozziel Herrera Tigres Ativo 131 / 128 40% 1 14.09.2026 -
Ezequiel Centurión River Plate Ativo 125 / 120 40% 1 12.09.2026 -
Patrick Schulte Columbus Crew Ativo 119 / 123 40% 1 12.09.2026 -
Efraín Álvarez Guadalajara Ativo 125 / 125 40% 3 08.09.2026 -
Diber Cambindo Leon Ativo 138 / 122 40% 3 07.09.2026 -
Dejan Joveljić Seattle Sounders Ativo 134 / 120 40% 1 07.09.2026 -
Nicolò Tresoldi Club Brugge Ativo 120 / 127 40% 1 05.09.2026 -
Liel Abada Charlotte Football Club Ativo 122 / 133 40% 1 05.09.2026 -
Luis Romo Guadalajara Ativo 125 / 146 40% 2 04.09.2026 -
Nahuel Herrera Penarol Ativo 122 / 123 40% 1 04.09.2026 -
Bruno Méndez Toluca Ativo 133 / 126 40% 1 04.09.2026 -
Jhohan Romaña Leon Ativo 116 / 134 40% 1 02.09.2026 -
Omar Campos Cruz Azul Ativo 136 / 119 40% 1 02.09.2026 -
Franco Romero Toluca Ativo 138 / 126 40% 1 02.09.2026 -
Nathan Silva Pumas UNAM Ativo 138 / 124 40% 2 01.09.2026 -
Eliás Montiel Pachuca Ativo 131 / 133 40% 1 01.09.2026 -
Dion Beljo Dinamo Zagreb Ativo 120 / 138 40% 2 29.08.2026 -
Cristian Montero Veracruz Ativo 137 / 133 40% 2 29.08.2026 -
Nahuel Furtado Wanderers Ativo 134 / 123 40% 1 29.08.2026 -
Jesús Orozco Chiquete Cruz Azul Ativo 127 / 127 40% 1 29.08.2026 -
Myrto Uzuni Austin FC Ativo 120 / 122 40% 3 28.08.2026 -
Ernest Muçi Trabzonspor Ativo 124 / 140 40% 2 28.08.2026 -
Gonzalo Plata Dinamo Moscow Ativo 125 / 127 40% 1 24.08.2026 -
Erik Lira Cruz Azul Ativo 134 / 126 40% 2 23.08.2026 -
Adalberto Carrasquilla Pumas UNAM Ativo 116 / 120 40% 1 23.08.2026 -
Nicolas Ramirez La Equidad Ativo 137 / 133 40% 1 20.08.2026 -
Iván Rodríguez Leon Ativo 128 / 122 40% 1 17.08.2026 -
Federico Pereira Toluca Ativo 145 / 125 40% 1 17.08.2026 -
Dániel Gazdag Columbus Crew Ativo 122 / 137 40% 1 12.08.2026 -
Nicolás Ibáñez Cruz Azul Ativo 123 / 137 40% 1 12.08.2026 -
Uwe Franke Mouscron Ativo 139 / 134 40% 1 10.08.2026 -
Sergio Garcia La Equidad Ativo 130 / 121 40% 1 10.08.2026 -
Joaquim Tigres Ativo 122 / 127 40% 1 10.08.2026 -
Alejandro Zendejas Club America Ativo 141 / 138 40% 1 09.08.2026 -
Brian Gutiérrez Guadalajara Ativo 120 / 130 40% 1 09.08.2026 -
Pablo Maffeo Olympiacos Ativo 148 / 147 40% 1 09.08.2026 -
Fernando Tapia Club America Ativo 113 / 118 40% 1 09.08.2026 -
Iñaki Peña Panathinaikos Ativo 149 / 145 40% 1 09.08.2026 -
Rubén Blanco Yokohama F. Marinos Ativo 119 / 133 40% 1 09.08.2026 Mais informações
Sam Surridge Nashville SC Ativo 123 / 140 40% 1 06.08.2026 -
Guus Til PSV Ativo 142 / 130 40% 1 04.08.2026 -
Diego Rossi Monterrey Ativo 123 / 141 40% 1 03.08.2026 -
Juan Pablo Domínguez Leon Ativo 137 / 126 40% 1 01.08.2026 -
Bryan González Guadalajara Ativo 138 / 138 40% 1 01.08.2026 -